sensor_id;sensor_type;location;lat;lon;timestamp;pressure;altitude;pressure_sealevel;temperature;humidity
46583;BME280;32309;48.858;8.252;2023-03-14T00:01:07;98607.66;;;11.35;79.73
46583;BME280;32309;48.858;8.252;2023-03-14T00:03:09;98606.03;;;11.33;80.30
46583;BME280;32309;48.858;8.252;2023-03-14T00:05:09;98601.81;;;11.32;79.74
46583;BME280;32309;48.858;8.252;2023-03-14T00:07:10;98598.78;;;11.37;79.30
46583;BME280;32309;48.858;8.252;2023-03-14T00:09:11;98603.03;;;11.38;79.72
46583;BME280;32309;48.858;8.252;2023-03-14T00:11:13;98611.75;;;11.37;79.15
46583;BME280;32309;48.858;8.252;2023-03-14T00:13:15;98591.84;;;11.38;79.55
46583;BME280;32309;48.858;8.252;2023-03-14T00:15:16;98585.16;;;11.35;79.70
46583;BME280;32309;48.858;8.252;2023-03-14T00:17:16;98586.09;;;11.34;79.41
46583;BME280;32309;48.858;8.252;2023-03-14T00:19:17;98594.69;;;11.35;79.26
46583;BME280;32309;48.858;8.252;2023-03-14T00:21:17;98586.09;;;11.34;80.32
46583;BME280;32309;48.858;8.252;2023-03-14T00:23:18;98583.66;;;11.32;79.28
46583;BME280;32309;48.858;8.252;2023-03-14T00:25:18;98580.22;;;11.32;79.50
46583;BME280;32309;48.858;8.252;2023-03-14T00:27:18;98584.59;;;11.31;79.91
46583;BME280;32309;48.858;8.252;2023-03-14T00:29:19;98590.75;;;11.30;79.46
46583;BME280;32309;48.858;8.252;2023-03-14T00:31:19;98583.78;;;11.31;79.37
46583;BME280;32309;48.858;8.252;2023-03-14T00:33:19;98588.84;;;11.32;79.99
46583;BME280;32309;48.858;8.252;2023-03-14T00:35:20;98586.50;;;11.29;79.78
46583;BME280;32309;48.858;8.252;2023-03-14T00:37:20;98594.16;;;11.31;80.33
46583;BME280;32309;48.858;8.252;2023-03-14T00:39:21;98595.91;;;11.30;80.26
46583;BME280;32309;48.858;8.252;2023-03-14T00:41:22;98597.56;;;11.31;79.12
46583;BME280;32309;48.858;8.252;2023-03-14T00:43:23;98615.59;;;11.33;79.78
46583;BME280;32309;48.858;8.252;2023-03-14T00:45:23;98623.50;;;11.31;80.59
46583;BME280;32309;48.858;8.252;2023-03-14T00:47:23;98621.84;;;11.30;80.81
46583;BME280;32309;48.858;8.252;2023-03-14T00:49:24;98616.00;;;11.28;80.40
46583;BME280;32309;48.858;8.252;2023-03-14T00:51:24;98632.50;;;11.27;80.96
46583;BME280;32309;48.858;8.252;2023-03-14T00:53:24;98634.16;;;11.28;80.51
46583;BME280;32309;48.858;8.252;2023-03-14T00:55:25;98636.84;;;11.27;80.50
46583;BME280;32309;48.858;8.252;2023-03-14T00:57:25;98633.72;;;11.23;81.05
46583;BME280;32309;48.858;8.252;2023-03-14T00:59:25;98640.94;;;11.20;81.45
46583;BME280;32309;48.858;8.252;2023-03-14T01:01:26;98629.78;;;11.19;81.57
46583;BME280;32309;48.858;8.252;2023-03-14T01:03:26;98631.53;;;11.19;81.99
46583;BME280;32309;48.858;8.252;2023-03-14T01:05:27;98622.09;;;11.18;81.56
46583;BME280;32309;48.858;8.252;2023-03-14T01:07:28;98613.66;;;11.15;81.58
46583;BME280;32309;48.858;8.252;2023-03-14T01:09:28;98615.69;;;11.12;82.53
46583;BME280;32309;48.858;8.252;2023-03-14T01:11:31;98608.72;;;11.12;82.52
46583;BME280;32309;48.858;8.252;2023-03-14T01:13:34;98603.94;;;11.08;83.15
46583;BME280;32309;48.858;8.252;2023-03-14T01:15:36;98604.22;;;11.05;82.52
46583;BME280;32309;48.858;8.252;2023-03-14T01:17:37;98599.97;;;11.04;83.59
46583;BME280;32309;48.858;8.252;2023-03-14T01:19:39;98595.88;;;11.01;83.18
46583;BME280;32309;48.858;8.252;2023-03-14T01:21:39;98592.56;;;10.99;83.40
46583;BME280;32309;48.858;8.252;2023-03-14T01:23:40;98588.91;;;11.02;81.58
46583;BME280;32309;48.858;8.252;2023-03-14T01:25:41;98587.25;;;11.01;83.01
46583;BME280;32309;48.858;8.252;2023-03-14T01:27:42;98584.13;;;10.97;82.15
46583;BME280;32309;48.858;8.252;2023-03-14T01:29:42;98578.94;;;10.97;81.97
46583;BME280;32309;48.858;8.252;2023-03-14T01:31:43;98579.06;;;10.95;81.60
46583;BME280;32309;48.858;8.252;2023-03-14T01:33:43;98565.56;;;10.92;81.74
46583;BME280;32309;48.858;8.252;2023-03-14T01:35:43;98556.84;;;10.93;81.39
46583;BME280;32309;48.858;8.252;2023-03-14T01:37:44;98554.25;;;10.93;81.78
46583;BME280;32309;48.858;8.252;2023-03-14T01:39:45;98543.97;;;10.91;82.05
46583;BME280;32309;48.858;8.252;2023-03-14T01:41:46;98549.31;;;10.90;81.30
46583;BME280;32309;48.858;8.252;2023-03-14T01:43:46;98544.97;;;10.90;80.84
46583;BME280;32309;48.858;8.252;2023-03-14T01:48:16;98533.09;;;10.88;80.37
46583;BME280;32309;48.858;8.252;2023-03-14T01:50:16;98528.16;;;10.85;80.40
46583;BME280;32309;48.858;8.252;2023-03-14T01:52:18;98527.19;;;10.86;80.16
46583;BME280;32309;48.858;8.252;2023-03-14T01:54:27;98528.84;;;10.87;80.13
46583;BME280;32309;48.858;8.252;2023-03-14T01:56:33;98521.22;;;10.85;80.11
46583;BME280;32309;48.858;8.252;2023-03-14T01:58:35;98520.50;;;10.83;80.36
46583;BME280;32309;48.858;8.252;2023-03-14T02:00:35;98514.50;;;10.82;80.18
46583;BME280;32309;48.858;8.252;2023-03-14T02:02:35;98522.44;;;10.81;79.75
46583;BME280;32309;48.858;8.252;2023-03-14T02:04:36;98531.28;;;10.78;79.80
46583;BME280;32309;48.858;8.252;2023-03-14T02:07:20;98528.84;;;10.77;79.28
46583;BME280;32309;48.858;8.252;2023-03-14T02:09:17;98529.22;;;10.72;79.92
46583;BME280;32309;48.858;8.252;2023-03-14T02:11:18;98524.72;;;10.74;79.56
46583;BME280;32309;48.858;8.252;2023-03-14T02:13:19;98543.53;;;10.76;79.61
46583;BME280;32309;48.858;8.252;2023-03-14T02:15:20;98536.03;;;10.73;79.64
46583;BME280;32309;48.858;8.252;2023-03-14T02:17:20;98531.00;;;10.72;79.49
46583;BME280;32309;48.858;8.252;2023-03-14T02:19:29;98527.69;;;10.70;79.26
46583;BME280;32309;48.858;8.252;2023-03-14T02:21:54;98529.34;;;10.71;79.49
46583;BME280;32309;48.858;8.252;2023-03-14T02:24:13;98528.41;;;10.72;79.05
46583;BME280;32309;48.858;8.252;2023-03-14T02:26:27;98527.69;;;10.70;79.00
46583;BME280;32309;48.858;8.252;2023-03-14T02:28:34;98520.75;;;10.70;78.97
46583;BME280;32309;48.858;8.252;2023-03-14T02:30:34;98528.78;;;10.67;79.31
46583;BME280;32309;48.858;8.252;2023-03-14T02:32:36;98524.56;;;10.66;79.44
46583;BME280;32309;48.858;8.252;2023-03-14T02:34:39;98516.25;;;10.62;79.20
46583;BME280;32309;48.858;8.252;2023-03-14T02:36:43;98513.09;;;10.59;79.04
46583;BME280;32309;48.858;8.252;2023-03-14T02:38:47;98508.03;;;10.57;78.94
46583;BME280;32309;48.858;8.252;2023-03-14T02:40:53;98515.81;;;10.57;79.18
46583;BME280;32309;48.858;8.252;2023-03-14T02:42:53;98517.72;;;10.55;78.06
46583;BME280;32309;48.858;8.252;2023-03-14T02:44:55;98504.88;;;10.54;78.60
46583;BME280;32309;48.858;8.252;2023-03-14T02:47:02;98512.09;;;10.50;78.52
46583;BME280;32309;48.858;8.252;2023-03-14T02:49:04;98515.63;;;10.49;78.40
46583;BME280;32309;48.858;8.252;2023-03-14T02:51:08;98506.09;;;10.49;78.98
46583;BME280;32309;48.858;8.252;2023-03-14T02:53:09;98507.84;;;10.49;78.25
46583;BME280;32309;48.858;8.252;2023-03-14T02:55:14;98497.38;;;10.51;78.62
46583;BME280;32309;48.858;8.252;2023-03-14T02:57:14;98485.38;;;10.49;78.35
46583;BME280;32309;48.858;8.252;2023-03-14T02:59:14;98482.09;;;10.47;77.55
46583;BME280;32309;48.858;8.252;2023-03-14T03:01:14;98475.25;;;10.46;77.80
46583;BME280;32309;48.858;8.252;2023-03-14T03:03:15;98464.38;;;10.43;78.12
46583;BME280;32309;48.858;8.252;2023-03-14T03:05:15;98464.50;;;10.41;77.56
46583;BME280;32309;48.858;8.252;2023-03-14T03:07:15;98458.63;;;10.39;76.86
46583;BME280;32309;48.858;8.252;2023-03-14T03:09:16;98463.09;;;10.37;77.53
46583;BME280;32309;48.858;8.252;2023-03-14T03:11:16;98460.41;;;10.39;77.11
46583;BME280;32309;48.858;8.252;2023-03-14T03:13:16;98454.53;;;10.37;77.36
46583;BME280;32309;48.858;8.252;2023-03-14T03:15:17;98444.03;;;10.38;77.19
46583;BME280;32309;48.858;8.252;2023-03-14T03:17:17;98443.78;;;10.41;76.70
46583;BME280;32309;48.858;8.252;2023-03-14T03:19:17;98442.94;;;10.41;77.22
46583;BME280;32309;48.858;8.252;2023-03-14T03:21:18;98436.81;;;10.42;76.47
46583;BME280;32309;48.858;8.252;2023-03-14T03:23:18;98436.81;;;10.42;76.51
46583;BME280;32309;48.858;8.252;2023-03-14T03:25:19;98433.44;;;10.41;76.59
46583;BME280;32309;48.858;8.252;2023-03-14T03:27:19;98419.78;;;10.39;75.82
46583;BME280;32309;48.858;8.252;2023-03-14T03:29:19;98424.81;;;10.41;75.94
46583;BME280;32309;48.858;8.252;2023-03-14T03:31:20;98410.13;;;10.41;75.23
46583;BME280;32309;48.858;8.252;2023-03-14T03:33:20;98406.84;;;10.39;75.57
46583;BME280;32309;48.858;8.252;2023-03-14T03:35:22;98401.66;;;10.39;75.71
46583;BME280;32309;48.858;8.252;2023-03-14T03:37:22;98400.16;;;10.37;75.58
46583;BME280;32309;48.858;8.252;2023-03-14T03:39:23;98409.78;;;10.35;75.58
46583;BME280;32309;48.858;8.252;2023-03-14T03:41:23;98388.38;;;10.32;74.69
46583;BME280;32309;48.858;8.252;2023-03-14T03:46:20;98395.22;;;10.33;74.26
46583;BME280;32309;48.858;8.252;2023-03-14T03:48:20;98378.03;;;10.32;74.27
46583;BME280;32309;48.858;8.252;2023-03-14T03:50:21;98380.91;;;10.29;73.98
46583;BME280;32309;48.858;8.252;2023-03-14T03:52:21;98385.94;;;10.31;74.29
46583;BME280;32309;48.858;8.252;2023-03-14T03:54:21;98380.38;;;10.36;74.45
46583;BME280;32309;48.858;8.252;2023-03-14T03:56:22;98382.16;;;10.35;73.37
46583;BME280;32309;48.858;8.252;2023-03-14T03:58:22;98370.41;;;10.31;73.90
46583;BME280;32309;48.858;8.252;2023-03-14T04:00:22;98371.06;;;10.33;73.55
46583;BME280;32309;48.858;8.252;2023-03-14T04:02:23;98378.16;;;10.31;73.52
46583;BME280;32309;48.858;8.252;2023-03-14T04:04:23;98373.00;;;10.31;74.48
46583;BME280;32309;48.858;8.252;2023-03-14T04:06:23;98373.94;;;10.30;73.83
46583;BME280;32309;48.858;8.252;2023-03-14T04:08:23;98371.50;;;10.28;73.29
46583;BME280;32309;48.858;8.252;2023-03-14T04:10:24;98371.88;;;10.24;73.25
46583;BME280;32309;48.858;8.252;2023-03-14T04:12:24;98370.66;;;10.28;74.28
46583;BME280;32309;48.858;8.252;2023-03-14T04:14:24;98365.09;;;10.23;73.54
46583;BME280;32309;48.858;8.252;2023-03-14T04:16:25;98356.63;;;10.21;73.52
46583;BME280;32309;48.858;8.252;2023-03-14T04:18:26;98354.03;;;10.21;73.30
46583;BME280;32309;48.858;8.252;2023-03-14T04:20:27;98358.41;;;10.20;73.69
46583;BME280;32309;48.858;8.252;2023-03-14T04:22:27;98348.16;;;10.19;73.09
46583;BME280;32309;48.858;8.252;2023-03-14T04:24:27;98340.38;;;10.19;73.92
46583;BME280;32309;48.858;8.252;2023-03-14T04:26:28;98332.75;;;10.17;74.26
46583;BME280;32309;48.858;8.252;2023-03-14T04:28:28;98335.91;;;10.11;74.08
46583;BME280;32309;48.858;8.252;2023-03-14T04:30:28;98325.25;;;10.14;73.90
46583;BME280;32309;48.858;8.252;2023-03-14T04:32:29;98333.31;;;10.11;73.66
46583;BME280;32309;48.858;8.252;2023-03-14T04:34:30;98321.97;;;10.12;74.01
46583;BME280;32309;48.858;8.252;2023-03-14T04:36:30;98330.03;;;10.09;72.89
46583;BME280;32309;48.858;8.252;2023-03-14T04:38:30;98335.34;;;10.07;73.59
46583;BME280;32309;48.858;8.252;2023-03-14T04:40:31;98322.25;;;10.09;73.36
46583;BME280;32309;48.858;8.252;2023-03-14T04:42:31;98326.34;;;10.11;72.81
46583;BME280;32309;48.858;8.252;2023-03-14T04:44:32;98330.56;;;10.12;73.26
46583;BME280;32309;48.858;8.252;2023-03-14T04:46:32;98326.91;;;10.15;72.96
46583;BME280;32309;48.858;8.252;2023-03-14T04:48:32;98326.78;;;10.16;73.13
46583;BME280;32309;48.858;8.252;2023-03-14T04:50:33;98322.25;;;10.19;72.87
46583;BME280;32309;48.858;8.252;2023-03-14T04:52:33;98323.25;;;10.27;72.15
46583;BME280;32309;48.858;8.252;2023-03-14T04:54:33;98321.06;;;10.23;72.48
46583;BME280;32309;48.858;8.252;2023-03-14T04:56:33;98331.41;;;10.23;71.83
46583;BME280;32309;48.858;8.252;2023-03-14T04:58:34;98323.66;;;10.23;72.32
46583;BME280;32309;48.858;8.252;2023-03-14T05:00:34;98320.94;;;10.24;71.99
46583;BME280;32309;48.858;8.252;2023-03-14T05:02:34;98307.97;;;10.24;72.21
46583;BME280;32309;48.858;8.252;2023-03-14T05:04:35;98325.97;;;10.26;71.94
46583;BME280;32309;48.858;8.252;2023-03-14T05:06:36;98319.84;;;10.27;72.23
46583;BME280;32309;48.858;8.252;2023-03-14T05:08:36;98312.88;;;10.27;73.17
46583;BME280;32309;48.858;8.252;2023-03-14T05:10:36;98304.41;;;10.25;72.41
46583;BME280;32309;48.858;8.252;2023-03-14T05:12:37;98307.00;;;10.25;71.85
46583;BME280;32309;48.858;8.252;2023-03-14T05:14:37;98305.41;;;10.24;72.30
46583;BME280;32309;48.858;8.252;2023-03-14T05:16:39;98316.41;;;10.26;72.25
46583;BME280;32309;48.858;8.252;2023-03-14T05:18:39;98308.66;;;10.26;72.02
46583;BME280;32309;48.858;8.252;2023-03-14T05:20:39;98313.81;;;10.26;72.53
46583;BME280;32309;48.858;8.252;2023-03-14T05:22:40;98302.66;;;10.26;71.55
46583;BME280;32309;48.858;8.252;2023-03-14T05:24:41;98318.34;;;10.24;72.01
46583;BME280;32309;48.858;8.252;2023-03-14T05:26:42;98301.31;;;10.22;71.59
46583;BME280;32309;48.858;8.252;2023-03-14T05:28:44;98297.06;;;10.21;72.08
46583;BME280;32309;48.858;8.252;2023-03-14T05:30:45;98287.53;;;10.21;72.23
46583;BME280;32309;48.858;8.252;2023-03-14T05:32:45;98300.75;;;10.18;71.94
46583;BME280;32309;48.858;8.252;2023-03-14T05:34:46;98310.16;;;10.19;72.06
46583;BME280;32309;48.858;8.252;2023-03-14T05:36:46;98301.97;;;10.14;72.47
46583;BME280;32309;48.858;8.252;2023-03-14T05:38:46;98293.38;;;10.13;72.43
46583;BME280;32309;48.858;8.252;2023-03-14T05:40:46;98289.31;;;10.11;72.58
46583;BME280;32309;48.858;8.252;2023-03-14T05:42:47;98285.88;;;10.10;72.80
46583;BME280;32309;48.858;8.252;2023-03-14T05:44:47;98281.94;;;10.06;72.66
46583;BME280;32309;48.858;8.252;2023-03-14T05:46:47;98289.00;;;10.04;72.55
46583;BME280;32309;48.858;8.252;2023-03-14T05:48:48;98281.38;;;10.03;72.36
46583;BME280;32309;48.858;8.252;2023-03-14T05:50:53;98287.47;;;10.02;72.36
46583;BME280;32309;48.858;8.252;2023-03-14T05:52:55;98280.13;;;9.97;73.04
46583;BME280;32309;48.858;8.252;2023-03-14T05:54:55;98279.34;;;9.96;72.52
46583;BME280;32309;48.858;8.252;2023-03-14T05:56:55;98285.44;;;9.95;72.95
46583;BME280;32309;48.858;8.252;2023-03-14T05:58:56;98280.13;;;9.97;72.65
46583;BME280;32309;48.858;8.252;2023-03-14T06:00:56;98272.50;;;9.95;72.88
46583;BME280;32309;48.858;8.252;2023-03-14T06:02:56;98261.59;;;9.92;73.10
46583;BME280;32309;48.858;8.252;2023-03-14T06:04:57;98255.63;;;9.91;72.52
46583;BME280;32309;48.858;8.252;2023-03-14T06:06:57;98258.22;;;9.91;72.62
46583;BME280;32309;48.858;8.252;2023-03-14T06:08:57;98254.13;;;9.89;72.91
46583;BME280;32309;48.858;8.252;2023-03-14T06:10:58;98256.00;;;9.87;72.47
46583;BME280;32309;48.858;8.252;2023-03-14T06:12:58;98257.78;;;9.86;72.90
46583;BME280;32309;48.858;8.252;2023-03-14T06:14:58;98263.91;;;9.85;72.80
46583;BME280;32309;48.858;8.252;2023-03-14T06:16:59;98259.53;;;9.86;72.88
46583;BME280;32309;48.858;8.252;2023-03-14T06:18:59;98255.34;;;9.85;72.92
46583;BME280;32309;48.858;8.252;2023-03-14T06:20:59;98263.78;;;9.87;72.86
46583;BME280;32309;48.858;8.252;2023-03-14T06:22:59;98261.19;;;9.87;71.93
46583;BME280;32309;48.858;8.252;2023-03-14T06:25:00;98255.75;;;9.90;72.69
46583;BME280;32309;48.858;8.252;2023-03-14T06:27:00;98262.69;;;9.89;72.25
46583;BME280;32309;48.858;8.252;2023-03-14T06:29:05;98259.72;;;9.94;72.41
46583;BME280;32309;48.858;8.252;2023-03-14T06:31:05;98258.75;;;9.95;72.43
46583;BME280;32309;48.858;8.252;2023-03-14T06:33:05;98254.69;;;10.02;72.25
46583;BME280;32309;48.858;8.252;2023-03-14T06:35:06;98265.84;;;10.03;71.84
46583;BME280;32309;48.858;8.252;2023-03-14T06:37:06;98253.84;;;10.02;72.38
46583;BME280;32309;48.858;8.252;2023-03-14T06:39:07;98255.63;;;10.01;72.58
46583;BME280;32309;48.858;8.252;2023-03-14T06:41:07;98249.38;;;10.04;72.80
46583;BME280;32309;48.858;8.252;2023-03-14T06:43:08;98247.47;;;10.06;72.40
46583;BME280;32309;48.858;8.252;2023-03-14T06:45:08;98249.91;;;10.07;72.22
46583;BME280;32309;48.858;8.252;2023-03-14T06:47:09;98256.84;;;10.07;72.36
46583;BME280;32309;48.858;8.252;2023-03-14T06:49:09;98247.88;;;10.11;72.05
46583;BME280;32309;48.858;8.252;2023-03-14T06:51:09;98251.28;;;10.11;72.27
46583;BME280;32309;48.858;8.252;2023-03-14T06:53:10;98250.19;;;10.14;72.59
46583;BME280;32309;48.858;8.252;2023-03-14T06:55:10;98249.34;;;10.13;72.96
46583;BME280;32309;48.858;8.252;2023-03-14T06:57:10;98246.78;;;10.13;72.90
46583;BME280;32309;48.858;8.252;2023-03-14T06:59:10;98255.94;;;10.18;72.41
46583;BME280;32309;48.858;8.252;2023-03-14T07:01:17;98247.06;;;10.20;72.25
46583;BME280;32309;48.858;8.252;2023-03-14T07:03:22;98255.66;;;10.21;71.72
46583;BME280;32309;48.858;8.252;2023-03-14T07:05:22;98252.78;;;10.24;71.92
46583;BME280;32309;48.858;8.252;2023-03-14T07:07:23;98257.00;;;10.25;71.23
46583;BME280;32309;48.858;8.252;2023-03-14T07:09:23;98265.19;;;10.30;72.44
46583;BME280;32309;48.858;8.252;2023-03-14T07:11:23;98263.41;;;10.30;72.00
46583;BME280;32309;48.858;8.252;2023-03-14T07:13:24;98262.47;;;10.31;71.82
46583;BME280;32309;48.858;8.252;2023-03-14T07:15:24;98263.16;;;10.33;71.38
46583;BME280;32309;48.858;8.252;2023-03-14T07:17:24;98265.50;;;10.37;71.79
46583;BME280;32309;48.858;8.252;2023-03-14T07:19:25;98272.97;;;10.40;71.37
46583;BME280;32309;48.858;8.252;2023-03-14T07:21:25;98276.13;;;10.43;70.96
46583;BME280;32309;48.858;8.252;2023-03-14T07:23:26;98267.13;;;10.47;70.95
46583;BME280;32309;48.858;8.252;2023-03-14T07:25:26;98263.31;;;10.52;70.65
46583;BME280;32309;48.858;8.252;2023-03-14T07:27:27;98287.72;;;10.59;70.89
46583;BME280;32309;48.858;8.252;2023-03-14T07:29:27;98280.22;;;10.65;71.20
46583;BME280;32309;48.858;8.252;2023-03-14T07:31:27;98281.56;;;10.70;70.14
46583;BME280;32309;48.858;8.252;2023-03-14T07:33:28;98277.75;;;10.74;70.54
46583;BME280;32309;48.858;8.252;2023-03-14T07:35:28;98279.09;;;10.78;70.77
46583;BME280;32309;48.858;8.252;2023-03-14T07:37:28;98297.63;;;10.83;70.56
46583;BME280;32309;48.858;8.252;2023-03-14T07:39:28;98292.19;;;10.86;70.05
46583;BME280;32309;48.858;8.252;2023-03-14T07:41:29;98296.28;;;10.89;69.38
46583;BME280;32309;48.858;8.252;2023-03-14T07:43:30;98289.59;;;10.86;69.53
46583;BME280;32309;48.858;8.252;2023-03-14T07:45:30;98302.28;;;10.89;69.99
46583;BME280;32309;48.858;8.252;2023-03-14T07:47:33;98303.78;;;10.92;70.30
46583;BME280;32309;48.858;8.252;2023-03-14T07:49:33;98304.31;;;10.95;70.20
46583;BME280;32309;48.858;8.252;2023-03-14T07:51:33;98305.13;;;10.96;69.71
46583;BME280;32309;48.858;8.252;2023-03-14T07:53:33;98295.44;;;10.98;69.51
46583;BME280;32309;48.858;8.252;2023-03-14T07:55:34;98311.00;;;10.98;69.52
46583;BME280;32309;48.858;8.252;2023-03-14T07:57:34;98302.78;;;11.03;69.69
46583;BME280;32309;48.858;8.252;2023-03-14T07:59:34;98315.59;;;11.04;69.17
46583;BME280;32309;48.858;8.252;2023-03-14T08:01:35;98312.06;;;11.05;68.94
46583;BME280;32309;48.858;8.252;2023-03-14T08:03:35;98315.75;;;11.03;68.97
46583;BME280;32309;48.858;8.252;2023-03-14T08:05:35;98326.38;;;11.09;68.35
46583;BME280;32309;48.858;8.252;2023-03-14T08:07:36;98322.84;;;11.10;69.41
46583;BME280;32309;48.858;8.252;2023-03-14T08:09:36;98319.28;;;11.11;69.25
46583;BME280;32309;48.858;8.252;2023-03-14T08:11:37;98324.34;;;11.13;67.63
46583;BME280;32309;48.858;8.252;2023-03-14T08:13:37;98332.66;;;11.17;68.45
46583;BME280;32309;48.858;8.252;2023-03-14T08:15:37;98327.34;;;11.18;69.49
46583;BME280;32309;48.858;8.252;2023-03-14T08:17:38;98342.06;;;11.18;69.91
46583;BME280;32309;48.858;8.252;2023-03-14T08:19:38;98336.75;;;11.19;70.07
46583;BME280;32309;48.858;8.252;2023-03-14T08:21:38;98336.06;;;11.17;71.01
46583;BME280;32309;48.858;8.252;2023-03-14T08:23:39;98325.72;;;11.07;70.13
46583;BME280;32309;48.858;8.252;2023-03-14T08:25:39;98335.94;;;11.09;70.46
46583;BME280;32309;48.858;8.252;2023-03-14T08:27:39;98324.47;;;11.11;69.52
46583;BME280;32309;48.858;8.252;2023-03-14T08:29:41;98335.38;;;11.15;69.63
46583;BME280;32309;48.858;8.252;2023-03-14T08:31:41;98325.84;;;11.15;69.84
46583;BME280;32309;48.858;8.252;2023-03-14T08:33:42;98328.69;;;11.12;70.04
46583;BME280;32309;48.858;8.252;2023-03-14T08:35:42;98330.06;;;11.17;69.48
46583;BME280;32309;48.858;8.252;2023-03-14T08:37:43;98324.88;;;11.17;69.15
46583;BME280;32309;48.858;8.252;2023-03-14T08:39:43;98326.94;;;11.13;69.30
46583;BME280;32309;48.858;8.252;2023-03-14T08:41:43;98325.44;;;11.10;69.45
46583;BME280;32309;48.858;8.252;2023-03-14T08:43:44;98329.38;;;11.14;69.71
46583;BME280;32309;48.858;8.252;2023-03-14T08:45:44;98329.53;;;11.13;68.98
46583;BME280;32309;48.858;8.252;2023-03-14T08:47:45;98343.97;;;11.15;69.04
46583;BME280;32309;48.858;8.252;2023-03-14T08:49:45;98336.34;;;11.14;68.73
46583;BME280;32309;48.858;8.252;2023-03-14T08:51:45;98345.88;;;11.13;68.93
46583;BME280;32309;48.858;8.252;2023-03-14T08:53:46;98349.03;;;11.17;68.61
46583;BME280;32309;48.858;8.252;2023-03-14T08:55:46;98332.53;;;11.18;68.74
46583;BME280;32309;48.858;8.252;2023-03-14T08:57:46;98341.09;;;11.19;68.62
46583;BME280;32309;48.858;8.252;2023-03-14T08:59:47;98349.03;;;11.17;68.02
46583;BME280;32309;48.858;8.252;2023-03-14T09:01:47;98340.28;;;11.18;68.19
46583;BME280;32309;48.858;8.252;2023-03-14T09:03:47;98346.84;;;11.22;68.55
46583;BME280;32309;48.858;8.252;2023-03-14T09:05:49;98338.63;;;11.27;68.42
46583;BME280;32309;48.858;8.252;2023-03-14T09:07:50;98348.44;;;11.33;68.51
46583;BME280;32309;48.858;8.252;2023-03-14T09:09:50;98345.44;;;11.38;68.19
46583;BME280;32309;48.858;8.252;2023-03-14T09:11:50;98327.81;;;11.41;67.77
46583;BME280;32309;48.858;8.252;2023-03-14T09:13:51;98341.03;;;11.48;67.62
46583;BME280;32309;48.858;8.252;2023-03-14T09:15:51;98343.50;;;11.49;67.47
46583;BME280;32309;48.858;8.252;2023-03-14T09:17:52;98323.84;;;11.47;66.29
46583;BME280;32309;48.858;8.252;2023-03-14T09:19:53;98343.91;;;11.55;67.57
46583;BME280;32309;48.858;8.252;2023-03-14T09:21:54;98345.25;;;11.59;66.55
46583;BME280;32309;48.858;8.252;2023-03-14T09:23:54;98339.47;;;11.65;66.25
46583;BME280;32309;48.858;8.252;2023-03-14T09:25:55;98343.41;;;11.69;66.13
46583;BME280;32309;48.858;8.252;2023-03-14T09:27:55;98331.91;;;11.72;66.49
46583;BME280;32309;48.858;8.252;2023-03-14T09:29:56;98342.03;;;11.75;65.75
46583;BME280;32309;48.858;8.252;2023-03-14T09:31:57;98350.47;;;11.77;66.24
46583;BME280;32309;48.858;8.252;2023-03-14T09:33:58;98354.72;;;11.78;65.51
46583;BME280;32309;48.858;8.252;2023-03-14T09:35:58;98358.03;;;11.70;65.09
46583;BME280;32309;48.858;8.252;2023-03-14T09:37:59;98362.78;;;11.75;65.51
46583;BME280;32309;48.858;8.252;2023-03-14T09:40:00;98369.75;;;11.74;65.73
46583;BME280;32309;48.858;8.252;2023-03-14T09:42:01;98390.25;;;11.68;67.10
46583;BME280;32309;48.858;8.252;2023-03-14T09:44:03;98380.06;;;11.56;69.55
46583;BME280;32309;48.858;8.252;2023-03-14T09:46:08;98396.19;;;11.50;71.94
46583;BME280;32309;48.858;8.252;2023-03-14T09:48:14;98391.69;;;11.42;72.54
46583;BME280;32309;48.858;8.252;2023-03-14T09:50:17;98395.28;;;11.31;71.91
46583;BME280;32309;48.858;8.252;2023-03-14T09:52:19;98403.34;;;11.19;74.64
46583;BME280;32309;48.858;8.252;2023-03-14T09:56:31;98401.84;;;11.16;74.55
46583;BME280;32309;48.858;8.252;2023-03-14T09:58:32;98398.31;;;11.07;75.23
46583;BME280;32309;48.858;8.252;2023-03-14T10:00:32;98397.34;;;11.08;75.35
46583;BME280;32309;48.858;8.252;2023-03-14T10:02:34;98402.09;;;11.03;74.60
46583;BME280;32309;48.858;8.252;2023-03-14T10:04:35;98405.69;;;11.02;74.18
46583;BME280;32309;48.858;8.252;2023-03-14T10:06:39;98398.28;;;10.97;77.74
46583;BME280;32309;48.858;8.252;2023-03-14T10:08:43;98404.97;;;11.00;74.70
46583;BME280;32309;48.858;8.252;2023-03-14T10:10:44;98406.91;;;10.88;76.11
46583;BME280;32309;48.858;8.252;2023-03-14T10:12:46;98397.38;;;10.89;75.55
46583;BME280;32309;48.858;8.252;2023-03-14T10:14:49;98393.38;;;10.85;78.72
46583;BME280;32309;48.858;8.252;2023-03-14T10:16:52;98392.03;;;10.80;80.17
46583;BME280;32309;48.858;8.252;2023-03-14T10:18:52;98393.66;;;10.81;79.71
46583;BME280;32309;48.858;8.252;2023-03-14T10:23:22;98398.72;;;10.73;81.57
46583;BME280;32309;48.858;8.252;2023-03-14T10:25:25;98394.59;;;10.80;82.02
46583;BME280;32309;48.858;8.252;2023-03-14T10:27:29;98399.66;;;10.72;81.44
46583;BME280;32309;48.858;8.252;2023-03-14T10:29:32;98404.00;;;10.62;82.56
46583;BME280;32309;48.858;8.252;2023-03-14T10:31:53;98406.59;;;10.62;82.24
46583;BME280;32309;48.858;8.252;2023-03-14T10:33:59;98419.41;;;10.63;81.12
46583;BME280;32309;48.858;8.252;2023-03-14T10:38:17;98419.41;;;10.54;84.21
46583;BME280;32309;48.858;8.252;2023-03-14T10:40:19;98435.59;;;10.46;84.09
46583;BME280;32309;48.858;8.252;2023-03-14T10:42:24;98442.84;;;10.52;84.25
46583;BME280;32309;48.858;8.252;2023-03-14T10:44:31;98446.25;;;10.53;83.72
46583;BME280;32309;48.858;8.252;2023-03-14T10:46:34;98444.38;;;10.55;84.08
46583;BME280;32309;48.858;8.252;2023-03-14T10:48:38;98444.50;;;10.53;85.83
46583;BME280;32309;48.858;8.252;2023-03-14T10:50:48;98457.03;;;10.58;86.09
46583;BME280;32309;48.858;8.252;2023-03-14T10:52:57;98464.25;;;10.54;85.94
46583;BME280;32309;48.858;8.252;2023-03-14T10:55:09;98463.59;;;10.52;86.74